sensor_id;sensor_type;location;lat;lon;timestamp;P1;durP1;ratioP1;P2;durP2;ratioP2
55206;SDS011;41079;52.856;6.534;2022-07-29T00:04:30;812.78;;;344.50;;
55206;SDS011;41079;52.856;6.534;2022-07-29T00:10:36;804.75;;;336.98;;
55206;SDS011;41079;52.856;6.534;2022-07-29T00:13:13;796.22;;;329.60;;
55206;SDS011;41079;52.856;6.534;2022-07-29T00:18:51;801.65;;;335.13;;
55206;SDS011;41079;52.856;6.534;2022-07-29T00:34:32;800.70;;;334.27;;
55206;SDS011;41079;52.856;6.534;2022-07-29T00:40:58;806.13;;;339.02;;
55206;SDS011;41079;52.856;6.534;2022-07-29T00:52:39;802.03;;;335.38;;
55206;SDS011;41079;52.856;6.534;2022-07-29T00:58:59;801.97;;;335.13;;
55206;SDS011;41079;52.856;6.534;2022-07-29T01:01:41;800.72;;;333.98;;
55206;SDS011;41079;52.856;6.534;2022-07-29T01:35:20;808.08;;;342.17;;
55206;SDS011;41079;52.856;6.534;2022-07-29T01:41:40;801.90;;;335.52;;
55206;SDS011;41079;52.856;6.534;2022-07-29T01:58:12;794.10;;;328.00;;
55206;SDS011;41079;52.856;6.534;2022-07-29T02:00:41;794.17;;;327.50;;
55206;SDS011;41079;52.856;6.534;2022-07-29T02:03:15;802.63;;;337.27;;
55206;SDS011;41079;52.856;6.534;2022-07-29T02:09:33;805.80;;;339.52;;
55206;SDS011;41079;52.856;6.534;2022-07-29T02:34:29;801.60;;;335.23;;
55206;SDS011;41079;52.856;6.534;2022-07-29T02:47:36;803.33;;;337.40;;
55206;SDS011;41079;52.856;6.534;2022-07-29T02:57:33;808.05;;;341.40;;
55206;SDS011;41079;52.856;6.534;2022-07-29T03:03:44;810.05;;;343.75;;
55206;SDS011;41079;52.856;6.534;2022-07-29T03:30:28;806.80;;;339.75;;
55206;SDS011;41079;52.856;6.534;2022-07-29T03:56:58;805.67;;;338.38;;
55206;SDS011;41079;52.856;6.534;2022-07-29T04:08:19;790.45;;;324.17;;
55206;SDS011;41079;52.856;6.534;2022-07-29T04:10:51;799.85;;;333.17;;
55206;SDS011;41079;52.856;6.534;2022-07-29T04:13:31;804.13;;;338.42;;
55206;SDS011;41079;52.856;6.534;2022-07-29T04:22:26;798.43;;;331.63;;
55206;SDS011;41079;52.856;6.534;2022-07-29T04:35:44;809.97;;;343.45;;
55206;SDS011;41079;52.856;6.534;2022-07-29T04:41:47;801.40;;;335.15;;
55206;SDS011;41079;52.856;6.534;2022-07-29T05:07:50;802.90;;;336.40;;
55206;SDS011;41079;52.856;6.534;2022-07-29T06:00:47;797.75;;;331.33;;
55206;SDS011;41079;52.856;6.534;2022-07-29T06:16:45;803.95;;;338.48;;
55206;SDS011;41079;52.856;6.534;2022-07-29T06:19:24;802.67;;;334.42;;
55206;SDS011;41079;52.856;6.534;2022-07-29T06:22:07;806.85;;;339.73;;
55206;SDS011;41079;52.856;6.534;2022-07-29T07:19:50;804.13;;;332.23;;
55206;SDS011;41079;52.856;6.534;2022-07-29T07:25:09;801.08;;;328.90;;
55206;SDS011;41079;52.856;6.534;2022-07-29T07:33:33;804.40;;;331.52;;
55206;SDS011;41079;52.856;6.534;2022-07-29T07:35:59;801.45;;;328.30;;
55206;SDS011;41079;52.856;6.534;2022-07-29T07:38:24;806.35;;;332.63;;
55206;SDS011;41079;52.856;6.534;2022-07-29T07:40:54;798.58;;;323.25;;
55206;SDS011;41079;52.856;6.534;2022-07-29T07:43:25;799.20;;;324.23;;
55206;SDS011;41079;52.856;6.534;2022-07-29T07:46:05;798.33;;;321.10;;
55206;SDS011;41079;52.856;6.534;2022-07-29T07:48:38;807.60;;;329.95;;
55206;SDS011;41079;52.856;6.534;2022-07-29T07:54:06;804.03;;;325.98;;
55206;SDS011;41079;52.856;6.534;2022-07-29T07:59:33;803.15;;;323.33;;
55206;SDS011;41079;52.856;6.534;2022-07-29T08:02:07;801.45;;;321.10;;
55206;SDS011;41079;52.856;6.534;2022-07-29T08:04:33;798.63;;;315.55;;
55206;SDS011;41079;52.856;6.534;2022-07-29T08:07:05;790.72;;;307.52;;
55206;SDS011;41079;52.856;6.534;2022-07-29T08:13:04;801.80;;;318.40;;
55206;SDS011;41079;52.856;6.534;2022-07-29T08:18:12;791.92;;;303.35;;
55206;SDS011;41079;52.856;6.534;2022-07-29T08:23:42;805.47;;;311.90;;
55206;SDS011;41079;52.856;6.534;2022-07-29T08:26:29;807.00;;;310.17;;
55206;SDS011;41079;52.856;6.534;2022-07-29T08:28:59;799.78;;;299.27;;
55206;SDS011;41079;52.856;6.534;2022-07-29T08:31:29;800.50;;;299.10;;
55206;SDS011;41079;52.856;6.534;2022-07-29T08:43:13;804.58;;;298.20;;
55206;SDS011;41079;52.856;6.534;2022-07-29T08:48:23;811.00;;;303.02;;
55206;SDS011;41079;52.856;6.534;2022-07-29T08:50:52;797.45;;;289.35;;
55206;SDS011;41079;52.856;6.534;2022-07-29T08:56:33;810.80;;;300.67;;
55206;SDS011;41079;52.856;6.534;2022-07-29T08:59:03;805.22;;;294.00;;
55206;SDS011;41079;52.856;6.534;2022-07-29T09:01:33;800.10;;;287.20;;
55206;SDS011;41079;52.856;6.534;2022-07-29T09:04:01;807.78;;;295.58;;
55206;SDS011;41079;52.856;6.534;2022-07-29T09:06:46;804.90;;;292.50;;
55206;SDS011;41079;52.856;6.534;2022-07-29T09:09:21;795.22;;;283.00;;
55206;SDS011;41079;52.856;6.534;2022-07-29T09:11:48;804.65;;;292.52;;
55206;SDS011;41079;52.856;6.534;2022-07-29T09:14:21;806.97;;;294.92;;
55206;SDS011;41079;52.856;6.534;2022-07-29T09:16:51;803.47;;;291.08;;
55206;SDS011;41079;52.856;6.534;2022-07-29T09:19:24;807.95;;;294.27;;
55206;SDS011;41079;52.856;6.534;2022-07-29T09:21:52;809.38;;;294.25;;
55206;SDS011;41079;52.856;6.534;2022-07-29T09:24:35;806.85;;;293.05;;
55206;SDS011;41079;52.856;6.534;2022-07-29T09:27:20;806.33;;;292.10;;
55206;SDS011;41079;52.856;6.534;2022-07-29T09:32:57;811.78;;;297.10;;
55206;SDS011;41079;52.856;6.534;2022-07-29T09:35:22;803.53;;;288.98;;
55206;SDS011;41079;52.856;6.534;2022-07-29T09:37:50;808.25;;;293.50;;
55206;SDS011;41079;52.856;6.534;2022-07-29T09:40:20;807.15;;;292.48;;
55206;SDS011;41079;52.856;6.534;2022-07-29T09:42:50;810.55;;;296.77;;
55206;SDS011;41079;52.856;6.534;2022-07-29T09:45:29;811.08;;;298.55;;
55206;SDS011;41079;52.856;6.534;2022-07-29T09:47:58;808.13;;;295.77;;
55206;SDS011;41079;52.856;6.534;2022-07-29T09:50:36;806.30;;;295.13;;
55206;SDS011;41079;52.856;6.534;2022-07-29T09:53:04;805.40;;;294.25;;
55206;SDS011;41079;52.856;6.534;2022-07-29T09:55:30;812.65;;;300.80;;
55206;SDS011;41079;52.856;6.534;2022-07-29T09:58:14;811.22;;;299.65;;
55206;SDS011;41079;52.856;6.534;2022-07-29T10:00:44;801.70;;;291.00;;
55206;SDS011;41079;52.856;6.534;2022-07-29T10:03:11;802.63;;;290.75;;
55206;SDS011;41079;52.856;6.534;2022-07-29T10:05:39;802.13;;;291.15;;
55206;SDS011;41079;52.856;6.534;2022-07-29T10:08:05;810.22;;;298.35;;
55206;SDS011;41079;52.856;6.534;2022-07-29T10:10:36;810.92;;;300.65;;
55206;SDS011;41079;52.856;6.534;2022-07-29T10:13:09;808.33;;;296.17;;
55206;SDS011;41079;52.856;6.534;2022-07-29T10:15:41;811.25;;;300.13;;
55206;SDS011;41079;52.856;6.534;2022-07-29T10:18:10;798.42;;;288.33;;
55206;SDS011;41079;52.856;6.534;2022-07-29T10:20:44;796.67;;;287.17;;
55206;SDS011;41079;52.856;6.534;2022-07-29T10:23:09;811.55;;;300.67;;
55206;SDS011;41079;52.856;6.534;2022-07-29T10:28:38;804.50;;;293.00;;
55206;SDS011;41079;52.856;6.534;2022-07-29T10:31:12;800.03;;;288.15;;
55206;SDS011;41079;52.856;6.534;2022-07-29T10:39:14;811.08;;;294.77;;
55206;SDS011;41079;52.856;6.534;2022-07-29T10:46:57;802.30;;;280.38;;
55206;SDS011;41079;52.856;6.534;2022-07-29T10:49:29;815.63;;;290.75;;
55206;SDS011;41079;52.856;6.534;2022-07-29T10:57:16;808.88;;;279.83;;
55206;SDS011;41079;52.856;6.534;2022-07-29T10:59:49;820.80;;;289.92;;
55206;SDS011;41079;52.856;6.534;2022-07-29T11:05:15;813.70;;;282.50;;
55206;SDS011;41079;52.856;6.534;2022-07-29T11:10:34;821.92;;;290.33;;
55206;SDS011;41079;52.856;6.534;2022-07-29T11:13:04;821.25;;;290.15;;
55206;SDS011;41079;52.856;6.534;2022-07-29T11:18:55;826.08;;;290.55;;
55206;SDS011;41079;52.856;6.534;2022-07-29T11:21:43;826.92;;;289.92;;
55206;SDS011;41079;52.856;6.534;2022-07-29T11:24:18;823.65;;;285.25;;
55206;SDS011;41079;52.856;6.534;2022-07-29T11:27:31;827.50;;;288.98;;
55206;SDS011;41079;52.856;6.534;2022-07-29T11:29:50;824.00;;;285.90;;
55206;SDS011;41079;52.856;6.534;2022-07-29T11:32:18;827.63;;;288.65;;
55206;SDS011;41079;52.856;6.534;2022-07-29T11:48:17;819.17;;;280.85;;
55206;SDS011;41079;52.856;6.534;2022-07-29T11:54:33;820.88;;;283.95;;
55206;SDS011;41079;52.856;6.534;2022-07-29T11:59:57;822.80;;;287.08;;
55206;SDS011;41079;52.856;6.534;2022-07-29T12:05:10;825.85;;;291.27;;
55206;SDS011;41079;52.856;6.534;2022-07-29T12:07:36;825.50;;;289.77;;
55206;SDS011;41079;52.856;6.534;2022-07-29T12:10:03;821.38;;;285.77;;
55206;SDS011;41079;52.856;6.534;2022-07-29T12:12:36;823.13;;;286.45;;
55206;SDS011;41079;52.856;6.534;2022-07-29T12:15:16;829.10;;;290.33;;
55206;SDS011;41079;52.856;6.534;2022-07-29T12:17:45;829.63;;;290.30;;
55206;SDS011;41079;52.856;6.534;2022-07-29T12:20:11;824.33;;;285.60;;
55206;SDS011;41079;52.856;6.534;2022-07-29T12:22:41;832.63;;;291.80;;
55206;SDS011;41079;52.856;6.534;2022-07-29T12:30:44;836.35;;;292.30;;
55206;SDS011;41079;52.856;6.534;2022-07-29T12:33:15;828.47;;;283.63;;
55206;SDS011;41079;52.856;6.534;2022-07-29T12:36:01;829.00;;;283.83;;
55206;SDS011;41079;52.856;6.534;2022-07-29T12:38:30;835.50;;;288.30;;
55206;SDS011;41079;52.856;6.534;2022-07-29T12:41:11;839.85;;;289.08;;
55206;SDS011;41079;52.856;6.534;2022-07-29T12:43:37;844.33;;;292.70;;
55206;SDS011;41079;52.856;6.534;2022-07-29T12:46:17;848.13;;;295.55;;
55206;SDS011;41079;52.856;6.534;2022-07-29T12:48:44;841.83;;;288.42;;
55206;SDS011;41079;52.856;6.534;2022-07-29T12:51:17;844.13;;;290.02;;
55206;SDS011;41079;52.856;6.534;2022-07-29T12:56:57;844.35;;;292.73;;
55206;SDS011;41079;52.856;6.534;2022-07-29T12:59:25;842.00;;;291.92;;
55206;SDS011;41079;52.856;6.534;2022-07-29T13:01:51;833.17;;;283.67;;
55206;SDS011;41079;52.856;6.534;2022-07-29T13:04:24;839.33;;;288.70;;
55206;SDS011;41079;52.856;6.534;2022-07-29T13:10:09;840.78;;;291.40;;
55206;SDS011;41079;52.856;6.534;2022-07-29T13:13:02;839.50;;;289.98;;
55206;SDS011;41079;52.856;6.534;2022-07-29T13:15:29;842.38;;;293.30;;
55206;SDS011;41079;52.856;6.534;2022-07-29T13:17:55;841.00;;;292.60;;
55206;SDS011;41079;52.856;6.534;2022-07-29T13:20:23;837.55;;;290.40;;
55206;SDS011;41079;52.856;6.534;2022-07-29T13:22:50;832.17;;;286.83;;
55206;SDS011;41079;52.856;6.534;2022-07-29T13:25:22;835.85;;;289.08;;
55206;SDS011;41079;52.856;6.534;2022-07-29T13:27:56;834.90;;;287.80;;
55206;SDS011;41079;52.856;6.534;2022-07-29T13:30:23;838.95;;;292.30;;
55206;SDS011;41079;52.856;6.534;2022-07-29T13:32:50;826.97;;;282.35;;
55206;SDS011;41079;52.856;6.534;2022-07-29T13:35:17;837.13;;;290.58;;
55206;SDS011;41079;52.856;6.534;2022-07-29T13:37:43;829.38;;;283.92;;
55206;SDS011;41079;52.856;6.534;2022-07-29T13:40:09;841.42;;;293.95;;
55206;SDS011;41079;52.856;6.534;2022-07-29T13:42:36;828.08;;;282.70;;
55206;SDS011;41079;52.856;6.534;2022-07-29T13:45:02;833.08;;;285.58;;
55206;SDS011;41079;52.856;6.534;2022-07-29T13:47:29;832.17;;;285.40;;
55206;SDS011;41079;52.856;6.534;2022-07-29T13:49:55;831.42;;;284.17;;
55206;SDS011;41079;52.856;6.534;2022-07-29T13:52:21;834.63;;;286.63;;
55206;SDS011;41079;52.856;6.534;2022-07-29T13:54:46;837.50;;;289.90;;
55206;SDS011;41079;52.856;6.534;2022-07-29T13:57:12;826.67;;;280.58;;
55206;SDS011;41079;52.856;6.534;2022-07-29T13:59:39;840.83;;;292.30;;
55206;SDS011;41079;52.856;6.534;2022-07-29T14:02:07;836.15;;;288.63;;
55206;SDS011;41079;52.856;6.534;2022-07-29T14:04:33;832.65;;;284.30;;
55206;SDS011;41079;52.856;6.534;2022-07-29T14:06:59;835.65;;;288.23;;
55206;SDS011;41079;52.856;6.534;2022-07-29T14:09:25;835.17;;;288.40;;
55206;SDS011;41079;52.856;6.534;2022-07-29T14:11:50;839.83;;;290.63;;
55206;SDS011;41079;52.856;6.534;2022-07-29T14:14:17;833.20;;;286.13;;
55206;SDS011;41079;52.856;6.534;2022-07-29T14:16:43;842.88;;;295.48;;
55206;SDS011;41079;52.856;6.534;2022-07-29T14:19:09;831.45;;;285.13;;
55206;SDS011;41079;52.856;6.534;2022-07-29T14:21:36;841.03;;;291.60;;
55206;SDS011;41079;52.856;6.534;2022-07-29T14:24:02;838.40;;;289.63;;
55206;SDS011;41079;52.856;6.534;2022-07-29T14:26:28;836.60;;;288.52;;
55206;SDS011;41079;52.856;6.534;2022-07-29T14:28:53;835.38;;;288.23;;
55206;SDS011;41079;52.856;6.534;2022-07-29T14:31:19;830.10;;;284.20;;
55206;SDS011;41079;52.856;6.534;2022-07-29T14:33:45;838.25;;;291.63;;
55206;SDS011;41079;52.856;6.534;2022-07-29T14:36:10;832.20;;;286.42;;
55206;SDS011;41079;52.856;6.534;2022-07-29T14:38:36;825.72;;;281.35;;
55206;SDS011;41079;52.856;6.534;2022-07-29T14:41:05;838.28;;;291.55;;
55206;SDS011;41079;52.856;6.534;2022-07-29T14:43:32;836.33;;;290.55;;
55206;SDS011;41079;52.856;6.534;2022-07-29T14:45:59;834.63;;;288.17;;
55206;SDS011;41079;52.856;6.534;2022-07-29T14:48:25;832.20;;;287.92;;
55206;SDS011;41079;52.856;6.534;2022-07-29T14:50:50;829.30;;;284.67;;
55206;SDS011;41079;52.856;6.534;2022-07-29T14:53:16;834.63;;;289.30;;
55206;SDS011;41079;52.856;6.534;2022-07-29T14:55:41;837.80;;;292.27;;
55206;SDS011;41079;52.856;6.534;2022-07-29T14:58:07;836.97;;;290.50;;
55206;SDS011;41079;52.856;6.534;2022-07-29T15:00:33;832.72;;;286.02;;
55206;SDS011;41079;52.856;6.534;2022-07-29T15:02:59;833.75;;;288.38;;
55206;SDS011;41079;52.856;6.534;2022-07-29T15:05:25;838.47;;;293.52;;
55206;SDS011;41079;52.856;6.534;2022-07-29T15:07:51;831.33;;;285.52;;
55206;SDS011;41079;52.856;6.534;2022-07-29T15:10:17;834.35;;;288.63;;
55206;SDS011;41079;52.856;6.534;2022-07-29T15:12:43;836.70;;;290.10;;
55206;SDS011;41079;52.856;6.534;2022-07-29T15:15:08;840.53;;;293.02;;
55206;SDS011;41079;52.856;6.534;2022-07-29T15:17:34;829.80;;;283.25;;
55206;SDS011;41079;52.856;6.534;2022-07-29T15:20:00;840.28;;;291.98;;
55206;SDS011;41079;52.856;6.534;2022-07-29T15:22:25;836.53;;;287.88;;
55206;SDS011;41079;52.856;6.534;2022-07-29T15:24:51;838.10;;;288.08;;
55206;SDS011;41079;52.856;6.534;2022-07-29T15:27:17;841.35;;;290.80;;
55206;SDS011;41079;52.856;6.534;2022-07-29T15:29:42;845.40;;;294.38;;
55206;SDS011;41079;52.856;6.534;2022-07-29T15:32:08;845.42;;;293.67;;
55206;SDS011;41079;52.856;6.534;2022-07-29T15:34:36;842.53;;;289.85;;
55206;SDS011;41079;52.856;6.534;2022-07-29T15:37:02;844.75;;;292.27;;
55206;SDS011;41079;52.856;6.534;2022-07-29T15:39:28;846.80;;;293.42;;
55206;SDS011;41079;52.856;6.534;2022-07-29T15:41:54;850.10;;;295.13;;
55206;SDS011;41079;52.856;6.534;2022-07-29T15:44:19;845.30;;;289.83;;
55206;SDS011;41079;52.856;6.534;2022-07-29T15:46:45;849.65;;;293.13;;
55206;SDS011;41079;52.856;6.534;2022-07-29T15:49:34;845.70;;;288.45;;
55206;SDS011;41079;52.856;6.534;2022-07-29T15:52:01;850.15;;;291.65;;
55206;SDS011;41079;52.856;6.534;2022-07-29T15:54:30;853.40;;;294.33;;
55206;SDS011;41079;52.856;6.534;2022-07-29T15:56:57;846.65;;;287.85;;
55206;SDS011;41079;52.856;6.534;2022-07-29T15:59:22;846.55;;;288.77;;
55206;SDS011;41079;52.856;6.534;2022-07-29T16:01:48;852.58;;;294.08;;
55206;SDS011;41079;52.856;6.534;2022-07-29T16:04:14;851.15;;;293.38;;
55206;SDS011;41079;52.856;6.534;2022-07-29T16:06:40;852.45;;;294.27;;
55206;SDS011;41079;52.856;6.534;2022-07-29T16:09:06;853.63;;;295.10;;
55206;SDS011;41079;52.856;6.534;2022-07-29T16:11:32;848.08;;;291.73;;
55206;SDS011;41079;52.856;6.534;2022-07-29T16:13:57;848.90;;;292.17;;
55206;SDS011;41079;52.856;6.534;2022-07-29T16:16:23;843.88;;;287.13;;
55206;SDS011;41079;52.856;6.534;2022-07-29T16:18:49;850.28;;;292.83;;
55206;SDS011;41079;52.856;6.534;2022-07-29T16:21:14;850.03;;;292.75;;
55206;SDS011;41079;52.856;6.534;2022-07-29T16:23:40;839.33;;;284.33;;
55206;SDS011;41079;52.856;6.534;2022-07-29T16:26:05;848.85;;;292.08;;
55206;SDS011;41079;52.856;6.534;2022-07-29T16:28:32;849.42;;;292.27;;
55206;SDS011;41079;52.856;6.534;2022-07-29T16:30:57;843.40;;;287.63;;
55206;SDS011;41079;52.856;6.534;2022-07-29T16:33:23;842.30;;;286.48;;
55206;SDS011;41079;52.856;6.534;2022-07-29T16:35:50;839.00;;;284.58;;
55206;SDS011;41079;52.856;6.534;2022-07-29T16:38:16;844.30;;;289.42;;
55206;SDS011;41079;52.856;6.534;2022-07-29T16:40:42;841.47;;;286.52;;
55206;SDS011;41079;52.856;6.534;2022-07-29T16:43:08;840.83;;;286.45;;
55206;SDS011;41079;52.856;6.534;2022-07-29T16:45:34;840.75;;;285.90;;
55206;SDS011;41079;52.856;6.534;2022-07-29T16:48:00;838.20;;;284.70;;
55206;SDS011;41079;52.856;6.534;2022-07-29T16:50:26;837.05;;;284.00;;
55206;SDS011;41079;52.856;6.534;2022-07-29T16:52:52;839.63;;;286.98;;
55206;SDS011;41079;52.856;6.534;2022-07-29T16:55:18;839.58;;;286.80;;
55206;SDS011;41079;52.856;6.534;2022-07-29T16:57:44;841.45;;;289.67;;
55206;SDS011;41079;52.856;6.534;2022-07-29T17:00:11;841.35;;;289.27;;
55206;SDS011;41079;52.856;6.534;2022-07-29T17:02:37;843.40;;;291.60;;
55206;SDS011;41079;52.856;6.534;2022-07-29T17:05:04;843.03;;;290.98;;
55206;SDS011;41079;52.856;6.534;2022-07-29T17:07:30;842.20;;;290.52;;
55206;SDS011;41079;52.856;6.534;2022-07-29T17:09:56;835.17;;;284.85;;
55206;SDS011;41079;52.856;6.534;2022-07-29T17:12:22;835.63;;;285.52;;
55206;SDS011;41079;52.856;6.534;2022-07-29T17:14:48;835.42;;;284.95;;
55206;SDS011;41079;52.856;6.534;2022-07-29T17:17:14;836.88;;;286.25;;
55206;SDS011;41079;52.856;6.534;2022-07-29T17:19:41;833.22;;;283.13;;
55206;SDS011;41079;52.856;6.534;2022-07-29T17:22:07;838.15;;;287.05;;
55206;SDS011;41079;52.856;6.534;2022-07-29T17:24:33;838.78;;;287.27;;
55206;SDS011;41079;52.856;6.534;2022-07-29T17:26:59;838.05;;;287.55;;
55206;SDS011;41079;52.856;6.534;2022-07-29T17:29:25;838.97;;;288.98;;
55206;SDS011;41079;52.856;6.534;2022-07-29T17:31:50;843.63;;;292.25;;
55206;SDS011;41079;52.856;6.534;2022-07-29T17:34:16;836.65;;;286.95;;
55206;SDS011;41079;52.856;6.534;2022-07-29T17:36:41;835.83;;;286.85;;
55206;SDS011;41079;52.856;6.534;2022-07-29T17:39:07;836.25;;;286.70;;
55206;SDS011;41079;52.856;6.534;2022-07-29T17:41:35;833.95;;;285.83;;
55206;SDS011;41079;52.856;6.534;2022-07-29T17:44:02;840.80;;;290.45;;
55206;SDS011;41079;52.856;6.534;2022-07-29T17:46:28;836.17;;;287.27;;
55206;SDS011;41079;52.856;6.534;2022-07-29T17:48:54;838.80;;;289.85;;
55206;SDS011;41079;52.856;6.534;2022-07-29T17:51:21;832.65;;;284.88;;
55206;SDS011;41079;52.856;6.534;2022-07-29T17:53:48;834.38;;;286.50;;
55206;SDS011;41079;52.856;6.534;2022-07-29T17:56:14;838.88;;;290.88;;
55206;SDS011;41079;52.856;6.534;2022-07-29T17:58:40;832.15;;;285.48;;
55206;SDS011;41079;52.856;6.534;2022-07-29T18:01:06;835.90;;;287.70;;
55206;SDS011;41079;52.856;6.534;2022-07-29T18:03:31;832.95;;;286.42;;
55206;SDS011;41079;52.856;6.534;2022-07-29T18:05:57;830.33;;;284.88;;
55206;SDS011;41079;52.856;6.534;2022-07-29T18:08:23;835.10;;;288.10;;
55206;SDS011;41079;52.856;6.534;2022-07-29T18:10:48;832.85;;;286.75;;
55206;SDS011;41079;52.856;6.534;2022-07-29T18:13:14;832.67;;;285.90;;
55206;SDS011;41079;52.856;6.534;2022-07-29T18:15:41;829.10;;;282.60;;
55206;SDS011;41079;52.856;6.534;2022-07-29T18:18:09;834.10;;;288.60;;
55206;SDS011;41079;52.856;6.534;2022-07-29T18:20:35;833.08;;;286.33;;
55206;SDS011;41079;52.856;6.534;2022-07-29T18:23:00;834.08;;;287.70;;
55206;SDS011;41079;52.856;6.534;2022-07-29T18:25:27;837.53;;;290.63;;
55206;SDS011;41079;52.856;6.534;2022-07-29T18:27:53;830.75;;;284.40;;
55206;SDS011;41079;52.856;6.534;2022-07-29T18:30:19;830.33;;;285.65;;
55206;SDS011;41079;52.856;6.534;2022-07-29T18:32:45;830.03;;;284.10;;
55206;SDS011;41079;52.856;6.534;2022-07-29T18:35:11;828.75;;;284.23;;
55206;SDS011;41079;52.856;6.534;2022-07-29T18:37:36;839.47;;;292.05;;
55206;SDS011;41079;52.856;6.534;2022-07-29T18:40:03;833.90;;;288.23;;
55206;SDS011;41079;52.856;6.534;2022-07-29T18:42:29;834.67;;;288.40;;
55206;SDS011;41079;52.856;6.534;2022-07-29T18:44:54;833.13;;;286.80;;
55206;SDS011;41079;52.856;6.534;2022-07-29T18:47:21;827.83;;;283.77;;
55206;SDS011;41079;52.856;6.534;2022-07-29T18:49:47;829.25;;;284.98;;
55206;SDS011;41079;52.856;6.534;2022-07-29T18:52:12;830.58;;;285.67;;
55206;SDS011;41079;52.856;6.534;2022-07-29T18:54:38;832.83;;;288.42;;
55206;SDS011;41079;52.856;6.534;2022-07-29T18:57:03;833.28;;;288.77;;
55206;SDS011;41079;52.856;6.534;2022-07-29T18:59:29;831.05;;;287.35;;
55206;SDS011;41079;52.856;6.534;2022-07-29T19:01:55;830.80;;;287.40;;
55206;SDS011;41079;52.856;6.534;2022-07-29T19:04:21;831.25;;;287.05;;
55206;SDS011;41079;52.856;6.534;2022-07-29T19:06:47;825.90;;;282.60;;
55206;SDS011;41079;52.856;6.534;2022-07-29T19:09:12;830.22;;;287.90;;
55206;SDS011;41079;52.856;6.534;2022-07-29T19:11:39;829.75;;;286.77;;
55206;SDS011;41079;52.856;6.534;2022-07-29T19:14:04;832.53;;;290.35;;
55206;SDS011;41079;52.856;6.534;2022-07-29T19:16:30;826.85;;;285.45;;
55206;SDS011;41079;52.856;6.534;2022-07-29T19:18:56;828.30;;;286.33;;
55206;SDS011;41079;52.856;6.534;2022-07-29T19:21:22;825.10;;;284.98;;
55206;SDS011;41079;52.856;6.534;2022-07-29T19:23:49;831.20;;;290.35;;
55206;SDS011;41079;52.856;6.534;2022-07-29T19:26:15;832.28;;;291.75;;
55206;SDS011;41079;52.856;6.534;2022-07-29T19:28:41;827.45;;;287.20;;
55206;SDS011;41079;52.856;6.534;2022-07-29T19:31:07;827.25;;;288.88;;
55206;SDS011;41079;52.856;6.534;2022-07-29T19:33:33;827.45;;;288.60;;
55206;SDS011;41079;52.856;6.534;2022-07-29T19:35:59;829.20;;;291.38;;
55206;SDS011;41079;52.856;6.534;2022-07-29T19:38:26;815.58;;;280.17;;
55206;SDS011;41079;52.856;6.534;2022-07-29T19:40:51;829.08;;;292.40;;
55206;SDS011;41079;52.856;6.534;2022-07-29T19:43:17;828.20;;;291.77;;
55206;SDS011;41079;52.856;6.534;2022-07-29T19:45:43;827.22;;;291.80;;
55206;SDS011;41079;52.856;6.534;2022-07-29T19:48:10;825.33;;;291.30;;
55206;SDS011;41079;52.856;6.534;2022-07-29T19:50:37;821.60;;;288.70;;
55206;SDS011;41079;52.856;6.534;2022-07-29T19:53:02;825.25;;;292.30;;
55206;SDS011;41079;52.856;6.534;2022-07-29T19:55:28;820.47;;;287.70;;
55206;SDS011;41079;52.856;6.534;2022-07-29T19:57:54;824.70;;;292.70;;
55206;SDS011;41079;52.856;6.534;2022-07-29T20:00:20;820.63;;;289.75;;
55206;SDS011;41079;52.856;6.534;2022-07-29T20:02:48;822.80;;;291.48;;
55206;SDS011;41079;52.856;6.534;2022-07-29T20:05:14;820.38;;;290.15;;
55206;SDS011;41079;52.856;6.534;2022-07-29T20:07:40;819.97;;;290.83;;
55206;SDS011;41079;52.856;6.534;2022-07-29T20:10:06;821.92;;;293.92;;
55206;SDS011;41079;52.856;6.534;2022-07-29T20:12:33;821.03;;;292.75;;
55206;SDS011;41079;52.856;6.534;2022-07-29T20:15:00;817.90;;;292.05;;
55206;SDS011;41079;52.856;6.534;2022-07-29T20:17:25;820.83;;;294.65;;
55206;SDS011;41079;52.856;6.534;2022-07-29T20:19:52;819.58;;;295.55;;
55206;SDS011;41079;52.856;6.534;2022-07-29T20:22:18;815.03;;;292.80;;
55206;SDS011;41079;52.856;6.534;2022-07-29T20:24:44;818.20;;;297.02;;
55206;SDS011;41079;52.856;6.534;2022-07-29T20:27:10;816.53;;;296.33;;
55206;SDS011;41079;52.856;6.534;2022-07-29T20:29:36;818.58;;;298.70;;
55206;SDS011;41079;52.856;6.534;2022-07-29T20:32:02;814.53;;;296.85;;
55206;SDS011;41079;52.856;6.534;2022-07-29T20:34:28;817.35;;;300.02;;
55206;SDS011;41079;52.856;6.534;2022-07-29T20:36:54;813.97;;;296.90;;
55206;SDS011;41079;52.856;6.534;2022-07-29T20:39:19;816.55;;;302.52;;
55206;SDS011;41079;52.856;6.534;2022-07-29T20:41:49;817.75;;;304.40;;
55206;SDS011;41079;52.856;6.534;2022-07-29T20:44:15;813.45;;;301.55;;
55206;SDS011;41079;52.856;6.534;2022-07-29T20:46:43;815.25;;;304.30;;
55206;SDS011;41079;52.856;6.534;2022-07-29T20:49:09;817.30;;;307.67;;
55206;SDS011;41079;52.856;6.534;2022-07-29T20:51:34;811.95;;;303.27;;
55206;SDS011;41079;52.856;6.534;2022-07-29T20:54:00;816.53;;;307.92;;
55206;SDS011;41079;52.856;6.534;2022-07-29T20:56:27;813.92;;;306.70;;
55206;SDS011;41079;52.856;6.534;2022-07-29T20:58:53;815.85;;;310.88;;
55206;SDS011;41079;52.856;6.534;2022-07-29T21:01:19;811.22;;;306.60;;
55206;SDS011;41079;52.856;6.534;2022-07-29T21:03:45;813.65;;;310.20;;
55206;SDS011;41079;52.856;6.534;2022-07-29T21:06:10;813.00;;;310.42;;
55206;SDS011;41079;52.856;6.534;2022-07-29T21:08:39;807.90;;;307.63;;
55206;SDS011;41079;52.856;6.534;2022-07-29T21:11:04;808.65;;;312.27;;
55206;SDS011;41079;52.856;6.534;2022-07-29T21:13:30;812.85;;;314.38;;
55206;SDS011;41079;52.856;6.534;2022-07-29T21:16:01;807.45;;;311.88;;
55206;SDS011;41079;52.856;6.534;2022-07-29T21:18:29;810.88;;;316.02;;
55206;SDS011;41079;52.856;6.534;2022-07-29T21:20:56;815.15;;;320.73;;
55206;SDS011;41079;52.856;6.534;2022-07-29T21:23:24;812.10;;;318.38;;
55206;SDS011;41079;52.856;6.534;2022-07-29T21:25:51;809.80;;;318.60;;
55206;SDS011;41079;52.856;6.534;2022-07-29T21:28:17;810.10;;;318.60;;
55206;SDS011;41079;52.856;6.534;2022-07-29T21:30:54;814.15;;;324.00;;
55206;SDS011;41079;52.856;6.534;2022-07-29T21:33:21;809.35;;;320.00;;
55206;SDS011;41079;52.856;6.534;2022-07-29T21:35:47;801.63;;;311.73;;
55206;SDS011;41079;52.856;6.534;2022-07-29T21:38:13;814.22;;;326.75;;
55206;SDS011;41079;52.856;6.534;2022-07-29T21:40:40;807.38;;;322.85;;
55206;SDS011;41079;52.856;6.534;2022-07-29T21:43:07;813.95;;;327.77;;
55206;SDS011;41079;52.856;6.534;2022-07-29T21:45:32;808.97;;;325.10;;